| time (UTC) | temp F | wind direction | speed MPH | gust MPH | rain 1hr in | rain 24hr in | rain mn in | humidity % | barometer mb |
| 20260507120603 | 52 | 302 | 0.0 | 0.0 | 0.00 | 0.00 | 0.00 | 28 | 1019.2 |
| 20260507115603 | 52 | 302 | 0.0 | 0.0 | 0.00 | 0.00 | 0.00 | 28 | 1019.3 |
| 20260507115103 | 52 | 302 | 0.0 | 0.0 | 0.00 | 0.00 | 0.00 | 28 | 1019.3 |
| 20260507114602 | 52 | 302 | 0.0 | 0.0 | 0.00 | 0.00 | 0.00 | 29 | 1019.3 |
| 20260507114103 | 52 | 302 | 0.0 | 0.0 | 0.00 | 0.00 | 0.00 | 30 | 1019.4 |
| 20260507113602 | 52 | 302 | 0.0 | 0.0 | 0.00 | 0.00 | 0.00 | 29 | 1019.4 |
| 20260507112604 | 52 | 302 | 0.0 | 0.0 | 0.00 | 0.00 | 0.00 | 29 | 1019.4 |
| 20260507112104 | 52 | 302 | 0.0 | 0.0 | 0.00 | 0.00 | 0.00 | 28 | 1019.4 |
| 20260507111603 | 52 | 302 | 0.0 | 0.0 | 0.00 | 0.00 | 0.00 | 29 | 1019.4 |
| 20260507111103 | 52 | 302 | 0.0 | 0.0 | 0.00 | 0.00 | 0.00 | 29 | 1019.4 |
| 20260507110604 | 52 | 302 | 0.0 | 0.0 | 0.00 | 0.00 | 0.00 | 29 | 1019.4 |
| 20260507110104 | 52 | 302 | 0.0 | 0.0 | 0.00 | 0.00 | 0.00 | 30 | 1019.4 |
| 20260507105609 | 52 | 302 | 0.0 | 0.0 | 0.00 | 0.00 | 0.00 | 31 | 1019.5 |
| 20260507105101 | 52 | 302 | 0.0 | 0.0 | 0.00 | 0.00 | 0.00 | 32 | 1019.4 |
| 20260507104601 | 53 | 302 | 0.0 | 0.0 | 0.00 | 0.00 | 0.00 | 31 | 1019.5 |
| 20260507104102 | 53 | 302 | 0.0 | 0.0 | 0.00 | 0.00 | 0.00 | 29 | 1019.5 |
| 20260507103602 | 53 | 302 | 0.0 | 0.0 | 0.00 | 0.00 | 0.00 | 30 | 1019.7 |
| 20260507102604 | 53 | 302 | 0.0 | 0.0 | 0.00 | 0.00 | 0.00 | 31 | 1019.7 |
| 20260507102059 | 53 | 302 | 0.0 | 0.0 | 0.00 | 0.00 | 0.00 | 30 | 1019.7 |
| 20260507101555 | 53 | 302 | 0.0 | 0.0 | 0.00 | 0.00 | 0.00 | 30 | 1019.7 |
| 20260507101055 | 53 | 302 | 0.0 | 0.0 | 0.00 | 0.00 | 0.00 | 30 | 1019.8 |
| 20260507100531 | 53 | 302 | 0.0 | 0.0 | 0.00 | 0.00 | 0.00 | 30 | 1019.8 |
| 20260507095531 | 53 | 302 | 0.0 | 0.0 | 0.00 | 0.00 | 0.00 | 30 | 1019.8 |
| 20260507095030 | 53 | 302 | 0.0 | 0.0 | 0.00 | 0.00 | 0.00 | 29 | 1019.8 |
| 20260507094529 | 53 | 302 | 0.0 | 0.0 | 0.00 | 0.00 | 0.00 | 27 | 1019.8 |
| 20260507094031 | 53 | 302 | 0.0 | 0.0 | 0.00 | 0.00 | 0.00 | 28 | 1019.9 |
| 20260507093531 | 53 | 302 | 0.0 | 0.0 | 0.00 | 0.00 | 0.00 | 28 | 1019.9 |
| 20260507092032 | 53 | 302 | 0.0 | 0.0 | 0.00 | 0.00 | 0.00 | 26 | 1020.0 |
| 20260507091531 | 53 | 302 | 0.0 | 0.0 | 0.00 | 0.00 | 0.00 | 27 | 1020.0 |
| 20260507091032 | 53 | 302 | 0.0 | 0.0 | 0.00 | 0.00 | 0.00 | 28 | 1020.2 |
| 20260507090526 | 53 | 302 | 0.0 | 0.0 | 0.00 | 0.00 | 0.00 | 28 | 1020.2 |
| 20260507090027 | 53 | 302 | 0.0 | 0.0 | 0.00 | 0.00 | 0.00 | 29 | 1020.2 |
| 20260507085518 | 54 | 302 | 0.0 | 0.0 | 0.00 | 0.00 | 0.00 | 29 | 1020.2 |
| 20260507085019 | 54 | 302 | 0.0 | 0.0 | 0.00 | 0.00 | 0.00 | 27 | 1020.2 |
| 20260507084003 | 54 | 302 | 0.0 | 0.0 | 0.00 | 0.00 | 0.00 | 24 | 1020.1 |
| 20260507083001 | 54 | 302 | 0.0 | 0.0 | 0.00 | 0.00 | 0.00 | 24 | 1020.1 |
| 20260507082002 | 54 | 302 | 0.0 | 0.0 | 0.00 | 0.00 | 0.00 | 23 | 1020.1 |
| 20260507081002 | 54 | 302 | 0.0 | 0.0 | 0.00 | 0.00 | 0.00 | 17 | 1020.1 |
| 20260507080504 | 54 | 302 | 0.0 | 0.0 | 0.00 | 0.00 | 0.00 | 15 | 1020.1 |
| 20260507075502 | 54 | 302 | 0.0 | 0.0 | 0.00 | 0.00 | 0.00 | 14 | 1020.1 |
| 20260507075004 | 54 | 302 | 0.0 | 0.0 | 0.00 | 0.00 | 0.00 | 7 | 1020.1 |
| 20260507074504 | 54 | 302 | 0.0 | 0.0 | 0.00 | 0.00 | 0.00 | 6 | 1020.2 |
| 20260507074003 | 54 | 302 | 0.0 | 0.0 | 0.00 | 0.00 | 0.00 | 4 | 1020.1 |
| 20260507073004 | 54 | 302 | 0.0 | 0.0 | 0.00 | 0.00 | 0.00 | 3 | 1020.1 |
| 20260507072503 | 54 | 302 | 0.0 | 0.0 | 0.00 | 0.00 | 0.00 | 1 | 1020.2 |
| 20260507072003 | 54 | 302 | 0.0 | 0.0 | 0.00 | 0.00 | 0.00 | 2 | 1020.1 |
| 20260507071501 | 54 | 302 | 0.0 | 0.0 | 0.00 | 0.00 | 0.00 | 1 | 1020.0 |
| 20260507071002 | 54 | 302 | 0.0 | 0.0 | 0.00 | 0.00 | 0.00 | 100 | 1020.0 |
| 20260507070501 | 54 | 302 | 0.0 | 0.0 | 0.00 | 0.00 | 0.00 | 1 | 1020.0 |
| 20260507070002 | 54 | 302 | 0.0 | 0.0 | 0.00 | 0.00 | 0.00 | 2 | 1020.0 |
| 20260507065502 | 54 | 302 | 0.0 | 0.0 | 0.00 | 0.00 | 0.00 | 2 | 1019.9 |
| 20260507065004 | 54 | 302 | 0.0 | 0.0 | 0.00 | 0.00 | 0.00 | 3 | 1019.9 |
| 20260507064004 | 54 | 302 | 0.0 | 0.0 | 0.00 | 0.00 | 0.00 | 3 | 1019.9 |
| 20260507063504 | 55 | 302 | 0.0 | 0.0 | 0.00 | 0.00 | 0.00 | 3 | 1019.9 |
| 20260507063001 | 55 | 302 | 0.0 | 0.0 | 0.00 | 0.00 | 0.00 | 3 | 1019.9 |
| 20260507062501 | 55 | 302 | 0.0 | 0.0 | 0.00 | 0.00 | 0.00 | 2 | 1019.9 |
| 20260507062001 | 55 | 302 | 0.0 | 0.0 | 0.00 | 0.00 | 0.00 | 2 | 1020.0 |
| 20260507061502 | 55 | 302 | 0.0 | 0.0 | 0.00 | 0.00 | 0.00 | 3 | 1019.9 |
| 20260507061002 | 55 | 302 | 0.0 | 0.0 | 0.00 | 0.00 | 0.00 | 3 | 1020.0 |
| 20260507060504 | 55 | 302 | 0.0 | 0.0 | 0.00 | 0.00 | 0.00 | 4 | 1020.0 |
| 20260507060004 | 55 | 302 | 0.0 | 0.0 | 0.00 | 0.00 | 0.00 | 4 | 1019.9 |
| 20260507055446 | 55 | 301 | 1.0 | 9.0 | 0.00 | 0.00 | 0.00 | 6 | 1020.0 |
| 20260507054943 | 55 | 301 | 3.0 | 9.0 | 0.00 | 0.00 | 0.00 | 6 | 1019.9 |
| 20260507054433 | 56 | 301 | 3.0 | 9.0 | 0.00 | 0.00 | 0.00 | 6 | 1020.0 |
| 20260507053430 | 56 | 301 | 2.0 | 5.0 | 0.00 | 0.00 | 0.00 | 12 | 1019.9 |
| 20260507052930 | 56 | 301 | 3.0 | 8.0 | 0.00 | 0.00 | 0.00 | 14 | 1019.9 |
| 20260507052430 | 56 | 301 | 4.0 | 9.0 | 0.00 | 0.00 | 0.00 | 16 | 1019.9 |
| 20260507051929 | 56 | 301 | 5.0 | 9.0 | 0.00 | 0.00 | 0.00 | 17 | 1019.8 |
| 20260507051430 | 57 | 301 | 3.0 | 8.0 | 0.00 | 0.00 | 0.00 | 16 | 1019.8 |
| 20260507045930 | 57 | 301 | 0.0 | 0.0 | 0.00 | 0.00 | 0.00 | 19 | 1019.8 |
| 20260507045430 | 57 | 301 | 0.0 | 0.0 | 0.00 | 0.00 | 0.00 | 20 | 1019.8 |
| 20260507044930 | 57 | 301 | 0.0 | 0.0 | 0.00 | 0.00 | 0.00 | 21 | 1019.8 |
| 20260507044430 | 57 | 301 | 0.0 | 0.0 | 0.00 | 0.00 | 0.00 | 21 | 1019.8 |
| 20260507043931 | 58 | 301 | 0.0 | 4.0 | 0.00 | 0.00 | 0.00 | 22 | 1019.8 |
| 20260507043424 | 58 | 300 | 0.0 | 4.0 | 0.00 | 0.00 | 0.00 | 23 | 1019.8 |
| 20260507042922 | 58 | 300 | 0.0 | 4.0 | 0.00 | 0.00 | 0.00 | 23 | 1019.7 |
| 20260507042422 | 58 | 300 | 1.0 | 5.0 | 0.00 | 0.00 | 0.00 | 24 | 1019.7 |
| 20260507041923 | 58 | 300 | 2.0 | 9.0 | 0.00 | 0.00 | 0.00 | 24 | 1019.7 |
| 20260507040923 | 58 | 299 | 6.0 | 11.0 | 0.00 | 0.00 | 0.00 | 23 | 1019.6 |
| 20260507040424 | 59 | 299 | 7.0 | 11.0 | 0.00 | 0.00 | 0.00 | 24 | 1019.5 |
| 20260507035923 | 59 | 295 | 6.0 | 11.0 | 0.00 | 0.00 | 0.00 | 21 | 1019.4 |
| 20260507035423 | 59 | 287 | 4.0 | 10.0 | 0.00 | 0.00 | 0.00 | 15 | 1019.4 |
| 20260507034923 | 60 | 287 | 4.0 | 10.0 | 0.00 | 0.00 | 0.00 | 13 | 1019.3 |
| 20260507034423 | 60 | 287 | 2.0 | 9.0 | 0.00 | 0.00 | 0.00 | 10 | 1019.2 |
| 20260507033923 | 60 | 287 | 0.0 | 4.0 | 0.00 | 0.00 | 0.00 | 11 | 1019.2 |
| 20260507033424 | 60 | 287 | 2.0 | 7.0 | 0.00 | 0.00 | 0.00 | 13 | 1019.1 |
| 20260507032924 | 60 | 287 | 4.0 | 9.0 | 0.00 | 0.00 | 0.00 | 15 | 1019.0 |
| 20260507032422 | 60 | 287 | 4.0 | 9.0 | 0.00 | 0.00 | 0.00 | 17 | 1018.9 |
| 20260507031922 | 60 | 287 | 2.0 | 9.0 | 0.00 | 0.00 | 0.00 | 17 | 1018.8 |
| 20260507031421 | 61 | 287 | 1.0 | 9.0 | 0.00 | 0.00 | 0.00 | 18 | 1018.8 |
| 20260507030921 | 61 | 287 | 0.0 | 0.0 | 0.00 | 0.00 | 0.00 | 18 | 1018.7 |
| 20260507030421 | 61 | 287 | 0.0 | 7.0 | 0.00 | 0.00 | 0.00 | 18 | 1018.7 |
| 20260507025921 | 61 | 287 | 2.0 | 7.0 | 0.00 | 0.00 | 0.00 | 19 | 1018.6 |
| 20260507025422 | 61 | 287 | 3.0 | 7.0 | 0.00 | 0.00 | 0.00 | 21 | 1018.6 |
| 20260507024423 | 62 | 287 | 4.0 | 7.0 | 0.00 | 0.00 | 0.00 | 26 | 1018.5 |
| 20260507023921 | 62 | 287 | 3.0 | 7.0 | 0.00 | 0.00 | 0.00 | 25 | 1018.5 |
| 20260507023422 | 62 | 287 | 3.0 | 7.0 | 0.00 | 0.00 | 0.00 | 29 | 1018.4 |
| 20260507022923 | 62 | 287 | 3.0 | 7.0 | 0.00 | 0.00 | 0.00 | 30 | 1018.4 |
| 20260507022423 | 62 | 287 | 2.0 | 8.0 | 0.00 | 0.00 | 0.00 | 30 | 1018.3 |
| 20260507020925 | 63 | 287 | 1.0 | 4.0 | 0.00 | 0.00 | 0.00 | 33 | 1018.3 |
| 20260507020424 | 63 | 287 | 2.0 | 7.0 | 0.00 | 0.00 | 0.00 | 34 | 1018.3 |
| 20260507015923 | 63 | 287 | 1.0 | 7.0 | 0.00 | 0.00 | 0.00 | 37 | 1018.3 |
| 20260507014922 | 64 | 287 | 2.0 | 9.0 | 0.00 | 0.00 | 0.00 | 39 | 1018.4 |
| 20260507014423 | 64 | 287 | 4.0 | 10.0 | 0.00 | 0.00 | 0.00 | 41 | 1018.3 |
| 20260507013921 | 64 | 287 | 4.0 | 10.0 | 0.00 | 0.00 | 0.00 | 42 | 1018.3 |
| 20260507013423 | 64 | 287 | 4.0 | 11.0 | 0.00 | 0.00 | 0.00 | 42 | 1018.4 |
| 20260507012418 | 65 | 275 | 4.0 | 9.0 | 0.00 | 0.00 | 0.00 | 40 | 1018.4 |
| 20260507011919 | 65 | 275 | 5.0 | 12.0 | 0.00 | 0.00 | 0.00 | 41 | 1018.3 |
| 20260507011419 | 65 | 275 | 6.0 | 12.0 | 0.00 | 0.00 | 0.00 | 41 | 1018.4 |
| 20260507010419 | 65 | 268 | 5.0 | 10.0 | 0.00 | 0.00 | 0.00 | 44 | 1018.3 |
| 20260507005913 | 65 | 267 | 5.0 | 10.0 | 0.00 | 0.00 | 0.00 | 46 | 1018.3 |
| 20260507005415 | 66 | 265 | 5.0 | 10.0 | 0.00 | 0.00 | 0.00 | 45 | 1018.3 |
| 20260507004916 | 66 | 265 | 2.0 | 10.0 | 0.00 | 0.00 | 0.00 | 43 | 1018.2 |
| 20260507004414 | 66 | 263 | 1.0 | 9.0 | 0.00 | 0.00 | 0.00 | 44 | 1018.2 |
| 20260507003915 | 67 | 261 | 1.0 | 9.0 | 0.00 | 0.00 | 0.00 | 44 | 1018.2 |
| 20260507003411 | 67 | 261 | 2.0 | 7.0 | 0.00 | 0.00 | 0.00 | 40 | 1018.1 |
| 20260507002902 | 67 | 261 | 4.0 | 9.0 | 0.00 | 0.00 | 0.00 | 35 | 1018.1 |
| 20260507001903 | 67 | 260 | 6.0 | 11.0 | 0.00 | 0.00 | 0.00 | 41 | 1018.2 |
| 20260507001402 | 67 | 259 | 5.0 | 11.0 | 0.00 | 0.00 | 0.00 | 42 | 1018.1 |
| 20260507000903 | 67 | 255 | 2.0 | 10.0 | 0.00 | 0.00 | 0.00 | 41 | 1018.1 |
| 20260506235901 | 68 | 245 | 1.0 | 9.0 | 0.00 | 0.00 | 0.00 | 39 | 1018.1 |
| 20260506235404 | 68 | 244 | 1.0 | 6.0 | 0.00 | 0.00 | 0.00 | 43 | 1018.0 |
| 20260506234855 | 68 | 243 | 3.0 | 8.0 | 0.00 | 0.00 | 0.00 | 44 | 1018.0 |
| 20260506234353 | 68 | 243 | 2.0 | 8.0 | 0.00 | 0.00 | 0.00 | 47 | 1018.0 |
| 20260506233355 | 69 | 240 | 0.0 | 0.0 | 0.00 | 0.00 | 0.00 | 51 | 1018.0 |
| 20260506232338 | 70 | 226 | 0.0 | 4.0 | 0.00 | 0.00 | 0.00 | 53 | 1017.9 |
| 20260506231829 | 71 | 226 | 0.0 | 4.0 | 0.00 | 0.00 | 0.00 | 52 | 1017.9 |
| 20260506231330 | 71 | 226 | 0.0 | 0.0 | 0.00 | 0.00 | 0.00 | 53 | 1018.0 |
| 20260506230835 | 71 | 226 | 0.0 | 0.0 | 0.00 | 0.00 | 0.00 | 52 | 1018.0 |
| 20260506225830 | 71 | 226 | 0.0 | 1.0 | 0.00 | 0.00 | 0.00 | 51 | 1018.0 |
| 20260506225328 | 70 | 226 | 0.0 | 1.0 | 0.00 | 0.00 | 0.00 | 51 | 1018.2 |
| 20260506224830 | 70 | 226 | 0.0 | 0.0 | 0.00 | 0.00 | 0.00 | 53 | 1018.2 |
| 20260506224331 | 70 | 226 | 0.0 | 0.0 | 0.00 | 0.00 | 0.00 | 53 | 1018.2 |
| 20260506223818 | 71 | 226 | 0.0 | 0.0 | 0.00 | 0.00 | 0.00 | 53 | 1018.3 |
| 20260506222819 | 72 | 226 | 0.0 | 0.0 | 0.00 | 0.00 | 0.00 | 53 | 1018.4 |
| 20260506222319 | 73 | 226 | 0.0 | 0.0 | 0.00 | 0.00 | 0.00 | 52 | 1018.4 |
| 20260506221819 | 73 | 226 | 0.0 | 0.0 | 0.00 | 0.00 | 0.00 | 52 | 1018.4 |
| 20260506221310 | 72 | 226 | 0.0 | 0.0 | 0.00 | 0.00 | 0.00 | 52 | 1018.4 |
| 20260506220804 | 72 | 226 | 0.0 | 0.0 | 0.00 | 0.00 | 0.00 | 51 | 1018.5 |
| 20260506220303 | 71 | 226 | 0.0 | 0.0 | 0.00 | 0.00 | 0.00 | 52 | 1018.5 |
| 20260506215804 | 71 | 226 | 0.0 | 0.0 | 0.00 | 0.00 | 0.00 | 53 | 1018.5 |
| 20260506215306 | 72 | 226 | 0.0 | 0.0 | 0.00 | 0.00 | 0.00 | 51 | 1018.5 |
| 20260506214802 | 71 | 226 | 0.0 | 0.0 | 0.00 | 0.00 | 0.00 | 53 | 1018.6 |
| 20260506214304 | 72 | 227 | 0.0 | 0.0 | 0.00 | 0.00 | 0.00 | 52 | 1018.5 |
| 20260506212803 | 71 | 227 | 0.0 | 0.0 | 0.00 | 0.00 | 0.00 | 50 | 1018.6 |
| 20260506212306 | 71 | 227 | 0.0 | 0.0 | 0.00 | 0.00 | 0.00 | 49 | 1018.5 |
| 20260506211804 | 70 | 227 | 0.0 | 0.0 | 0.00 | 0.00 | 0.00 | 51 | 1018.6 |
| 20260506211302 | 71 | 227 | 0.0 | 0.0 | 0.00 | 0.00 | 0.00 | 51 | 1018.7 |
| 20260506210804 | 71 | 227 | 0.0 | 0.0 | 0.00 | 0.00 | 0.00 | 46 | 1018.7 |
| 20260506210301 | 70 | 227 | 0.0 | 0.0 | 0.00 | 0.00 | 0.00 | 48 | 1018.8 |
| 20260506205802 | 69 | 227 | 0.0 | 0.0 | 0.00 | 0.00 | 0.00 | 47 | 1018.8 |
| 20260506205305 | 69 | 227 | 0.0 | 0.0 | 0.00 | 0.00 | 0.00 | 48 | 1018.9 |
| 20260506204801 | 69 | 227 | 0.0 | 0.0 | 0.00 | 0.00 | 0.00 | 49 | 1018.9 |
| 20260506204302 | 69 | 227 | 0.0 | 0.0 | 0.00 | 0.00 | 0.00 | 45 | 1018.8 |
| 20260506203802 | 69 | 227 | 0.0 | 0.0 | 0.00 | 0.00 | 0.00 | 50 | 1018.9 |
| 20260506203303 | 69 | 227 | 0.0 | 0.0 | 0.00 | 0.00 | 0.00 | 47 | 1018.9 |
| 20260506202804 | 69 | 227 | 0.0 | 0.0 | 0.00 | 0.00 | 0.00 | 42 | 1018.8 |
| 20260506202306 | 68 | 227 | 0.0 | 0.0 | 0.00 | 0.00 | 0.00 | 42 | 1018.7 |
| 20260506201804 | 68 | 230 | 0.0 | 0.0 | 0.00 | 0.00 | 0.00 | 43 | 1018.7 |
| 20260506201304 | 68 | 234 | 0.0 | 0.0 | 0.00 | 0.00 | 0.00 | 45 | 1018.7 |
| 20260506200803 | 68 | 234 | 0.0 | 0.0 | 0.00 | 0.00 | 0.00 | 44 | 1018.8 |
| 20260506200302 | 68 | 234 | 0.0 | 0.0 | 0.00 | 0.00 | 0.00 | 42 | 1018.9 |
| 20260506195803 | 68 | 234 | 0.0 | 0.0 | 0.00 | 0.00 | 0.00 | 42 | 1019.0 |
| 20260506195306 | 67 | 234 | 0.0 | 0.0 | 0.00 | 0.00 | 0.00 | 34 | 1019.0 |
| 20260506194804 | 67 | 234 | 0.0 | 0.0 | 0.00 | 0.00 | 0.00 | 44 | 1019.1 |
| 20260506194303 | 67 | 235 | 0.0 | 0.0 | 0.00 | 0.00 | 0.00 | 39 | 1019.1 |
| 20260506193803 | 67 | 235 | 0.0 | 0.0 | 0.00 | 0.00 | 0.00 | 36 | 1019.2 |
| 20260506193304 | 67 | 235 | 0.0 | 0.0 | 0.00 | 0.00 | 0.00 | 36 | 1019.2 |
| 20260506192305 | 66 | 235 | 0.0 | 0.0 | 0.00 | 0.00 | 0.00 | 35 | 1019.3 |
| 20260506191800 | 66 | 235 | 0.0 | 0.0 | 0.00 | 0.00 | 0.00 | 32 | 1019.3 |
| 20260506191303 | 66 | 235 | 0.0 | 0.0 | 0.00 | 0.00 | 0.00 | 37 | 1019.3 |
| 20260506190802 | 66 | 235 | 0.0 | 0.0 | 0.00 | 0.00 | 0.00 | 30 | 1019.2 |
| 20260506190302 | 65 | 235 | 0.0 | 0.0 | 0.00 | 0.00 | 0.00 | 34 | 1019.2 |
| 20260506185800 | 65 | 235 | 0.0 | 0.0 | 0.00 | 0.00 | 0.00 | 37 | 1019.2 |
| 20260506185302 | 65 | 235 | 0.0 | 0.0 | 0.00 | 0.00 | 0.00 | 36 | 1019.2 |
| 20260506184803 | 65 | 235 | 0.0 | 0.0 | 0.00 | 0.00 | 0.00 | 36 | 1019.2 |
| 20260506184304 | 65 | 235 | 0.0 | 0.0 | 0.00 | 0.00 | 0.00 | 28 | 1019.2 |
| 20260506183802 | 65 | 235 | 0.0 | 0.0 | 0.00 | 0.00 | 0.00 | 27 | 1019.2 |
| 20260506183302 | 65 | 235 | 0.0 | 0.0 | 0.00 | 0.00 | 0.00 | 24 | 1019.1 |
| 20260506182802 | 64 | 235 | 0.0 | 0.0 | 0.00 | 0.00 | 0.00 | 23 | 1019.1 |
| 20260506182301 | 64 | 235 | 0.0 | 0.0 | 0.00 | 0.00 | 0.00 | 16 | 1019.1 |
| 20260506181802 | 64 | 235 | 0.0 | 0.0 | 0.00 | 0.00 | 0.00 | 16 | 1019.0 |
| 20260506181300 | 64 | 235 | 0.0 | 0.0 | 0.00 | 0.00 | 0.00 | 14 | 1019.1 |
| 20260506180804 | 63 | 235 | 0.0 | 0.0 | 0.00 | 0.00 | 0.00 | 11 | 1019.2 |
| 20260506180303 | 63 | 235 | 0.0 | 0.0 | 0.00 | 0.00 | 0.00 | 10 | 1019.2 |
| 20260506175804 | 63 | 235 | 0.0 | 0.0 | 0.00 | 0.00 | 0.00 | 7 | 1019.2 |
| 20260506175306 | 63 | 235 | 0.0 | 0.0 | 0.00 | 0.00 | 0.00 | 5 | 1019.2 |
| 20260506174800 | 63 | 235 | 0.0 | 0.0 | 0.00 | 0.00 | 0.00 | 100 | 1019.2 |
| 20260506174302 | 62 | 235 | 0.0 | 0.0 | 0.00 | 0.00 | 0.00 | 100 | 1019.2 |
| 20260506173802 | 62 | 235 | 0.0 | 0.0 | 0.00 | 0.00 | 0.00 | 100 | 1019.3 |
| 20260506173302 | 62 | 235 | 0.0 | 0.0 | 0.00 | 0.00 | 0.00 | 100 | 1019.2 |
| 20260506172802 | 62 | 235 | 0.0 | 0.0 | 0.00 | 0.00 | 0.00 | 100 | 1019.1 |
| 20260506172307 | 61 | 235 | 0.0 | 0.0 | 0.00 | 0.00 | 0.00 | 100 | 1019.1 |
| 20260506171804 | 60 | 236 | 0.0 | 0.0 | 0.00 | 0.00 | 0.00 | 100 | 1019.1 |
| 20260506170804 | 60 | 236 | 0.0 | 0.0 | 0.00 | 0.00 | 0.00 | 100 | 1019.0 |
| 20260506170304 | 60 | 236 | 0.0 | 0.0 | 0.00 | 0.00 | 0.00 | 100 | 1019.1 |
| 20260506165803 | 60 | 236 | 0.0 | 0.0 | 0.00 | 0.00 | 0.00 | 100 | 1019.0 |
| 20260506165305 | 59 | 236 | 0.0 | 0.0 | 0.00 | 0.00 | 0.00 | 100 | 1019.0 |
| 20260506164803 | 59 | 236 | 0.0 | 0.0 | 0.00 | 0.00 | 0.00 | 100 | 1019.1 |
| 20260506164301 | 58 | 236 | 0.0 | 0.0 | 0.00 | 0.00 | 0.00 | 100 | 1019.2 |
| 20260506163803 | 58 | 235 | 0.0 | 0.0 | 0.00 | 0.00 | 0.00 | 100 | 1019.2 |
| 20260506163302 | 58 | 235 | 0.0 | 0.0 | 0.00 | 0.00 | 0.00 | 100 | 1019.2 |
| 20260506162802 | 58 | 235 | 0.0 | 0.0 | 0.00 | 0.00 | 0.00 | 100 | 1019.1 |
| 20260506162302 | 58 | 235 | 0.0 | 0.0 | 0.00 | 0.00 | 0.00 | 100 | 1019.2 |
| 20260506161802 | 58 | 235 | 0.0 | 0.0 | 0.00 | 0.00 | 0.00 | 100 | 1019.2 |
| 20260506160804 | 58 | 235 | 0.0 | 0.0 | 0.00 | 0.00 | 0.00 | 100 | 1019.0 |
| 20260506160300 | 58 | 235 | 0.0 | 0.0 | 0.00 | 0.00 | 0.00 | 100 | 1019.0 |
| 20260506155801 | 58 | 235 | 0.0 | 0.0 | 0.00 | 0.00 | 0.00 | 100 | 1018.8 |
| 20260506155305 | 57 | 235 | 0.0 | 0.0 | 0.00 | 0.00 | 0.00 | 100 | 1018.8 |
| 20260506154801 | 57 | 235 | 0.0 | 0.0 | 0.00 | 0.00 | 0.00 | 100 | 1018.9 |
| 20260506153802 | 57 | 235 | 0.0 | 0.0 | 0.00 | 0.00 | 0.00 | 100 | 1018.6 |
| 20260506153310 | 57 | 235 | 0.0 | 0.0 | 0.00 | 0.00 | 0.00 | 100 | 1018.7 |
| 20260506152803 | 57 | 235 | 0.0 | 0.0 | 0.00 | 0.00 | 0.00 | 100 | 1018.5 |
| 20260506152305 | 56 | 235 | 0.0 | 0.0 | 0.00 | 0.00 | 0.00 | 100 | 1018.5 |
| 20260506151802 | 56 | 235 | 0.0 | 0.0 | 0.00 | 0.00 | 0.00 | 100 | 1018.5 |
| 20260506150804 | 56 | 235 | 0.0 | 0.0 | 0.00 | 0.00 | 0.00 | 100 | 1019.0 |
| 20260506150305 | 56 | 235 | 0.0 | 0.0 | 0.00 | 0.00 | 0.00 | 100 | 1019.1 |
| 20260506145802 | 56 | 235 | 0.0 | 0.0 | 0.00 | 0.00 | 0.00 | 100 | 1019.1 |
| 20260506145305 | 56 | 235 | 0.0 | 0.0 | 0.00 | 0.00 | 0.00 | 100 | 1019.2 |
| 20260506144303 | 56 | 235 | 0.0 | 0.0 | 0.00 | 0.00 | 0.00 | 100 | 1019.1 |
| 20260506143303 | 56 | 235 | 0.0 | 0.0 | 0.00 | 0.00 | 0.00 | 100 | 1019.0 |
| 20260506142803 | 56 | 235 | 0.0 | 0.0 | 0.00 | 0.00 | 0.00 | 100 | 1018.9 |
| 20260506142305 | 56 | 235 | 0.0 | 0.0 | 0.00 | 0.00 | 0.00 | 100 | 1018.9 |
| 20260506141301 | 55 | 235 | 0.0 | 0.0 | 0.00 | 0.00 | 0.00 | 100 | 1018.6 |
| 20260506135802 | 55 | 235 | 0.0 | 0.0 | 0.00 | 0.00 | 0.00 | 100 | 1018.1 |
| 20260506134801 | 55 | 235 | 0.0 | 0.0 | 0.00 | 0.00 | 0.00 | 100 | 1018.2 |
| 20260506133803 | 55 | 235 | 0.0 | 0.0 | 0.00 | 0.00 | 0.00 | 100 | 1018.2 |
| 20260506133303 | 55 | 235 | 0.0 | 0.0 | 0.00 | 0.00 | 0.00 | 100 | 1018.1 |
| 20260506132807 | 55 | 235 | 0.0 | 0.0 | 0.00 | 0.00 | 0.00 | 100 | 1018.1 |
| 20260506132307 | 55 | 235 | 0.0 | 0.0 | 0.00 | 0.00 | 0.00 | 100 | 1018.1 |
| 20260506131802 | 55 | 235 | 0.0 | 0.0 | 0.00 | 0.00 | 0.00 | 100 | 1018.1 |
| 20260506131303 | 55 | 235 | 0.0 | 0.0 | 0.00 | 0.00 | 0.00 | 100 | 1018.0 |
| 20260506130802 | 55 | 235 | 0.0 | 0.0 | 0.00 | 0.00 | 0.00 | 100 | 1018.0 |
| 20260506130303 | 55 | 235 | 0.0 | 0.0 | 0.00 | 0.00 | 0.00 | 100 | 1017.8 |
| 20260506125803 | 56 | 235 | 0.0 | 0.0 | 0.00 | 0.00 | 0.00 | 100 | 1017.8 |
| 20260506125304 | 56 | 235 | 0.0 | 0.0 | 0.00 | 0.00 | 0.00 | 100 | 1017.7 |
| 20260506124302 | 56 | 235 | 0.0 | 0.0 | 0.00 | 0.00 | 0.00 | 100 | 1017.6 |
| 20260506123304 | 56 | 235 | 0.0 | 0.0 | 0.00 | 0.00 | 0.00 | 100 | 1017.5 |
| 20260506122804 | 56 | 235 | 0.0 | 0.0 | 0.00 | 0.00 | 0.00 | 100 | 1017.5 |
| 20260506122301 | 56 | 235 | 0.0 | 0.0 | 0.00 | 0.00 | 0.00 | 100 | 1017.5 |
| 20260506121803 | 56 | 235 | 0.0 | 0.0 | 0.00 | 0.00 | 0.00 | 100 | 1017.6 |
| 20260506121302 | 56 | 235 | 0.0 | 0.0 | 0.00 | 0.00 | 0.00 | 100 | 1017.6 |
| 20260506120802 | 56 | 235 | 0.0 | 0.0 | 0.00 | 0.00 | 0.00 | 100 | 1017.6 |